Time;durP1;ratioP1;P1;durP2;ratioP2;P2;SDS_P1;SDS_P2;PMS_P1;PMS_P2;Temp;Humidity;BMP_temperature;BMP_pressure;BME280_temperature;BME280_humidity;BME280_pressure;Samples;Min_cycle;Max_cycle;Signal;HPM_P1;HPM_P2
2022/04/01 00:02:24;;;;;;;10.00;7.30;;;;;;;;;;5028296;28;20113;-74
2022/04/01 00:04:50;;;;;;;12.23;7.90;;;;;;;;;;5027149;28;20474;-75
2022/04/01 00:07:16;;;;;;;10.63;8.30;;;;;;;;;;5010860;28;20045;-76
2022/04/01 00:09:42;;;;;;;11.43;8.00;;;;;;;;;;5025565;28;20038;-75
2022/04/01 00:12:08;;;;;;;11.90;7.93;;;;;;;;;;5025673;28;20638;-75
2022/04/01 00:14:35;;;;;;;10.10;7.63;;;;;;;;;;5025678;28;20095;-75
2022/04/01 00:17:00;;;;;;;10.13;6.90;;;;;;;;;;5025980;28;20049;-75
2022/04/01 00:19:27;;;;;;;10.97;8.00;;;;;;;;;;5025553;28;20034;-75
2022/04/01 00:21:53;;;;;;;10.77;7.27;;;;;;;;;;5025601;28;20034;-75
2022/04/01 00:24:19;;;;;;;11.93;8.30;;;;;;;;;;5026018;28;20061;-75
2022/04/01 00:26:45;;;;;;;12.10;8.27;;;;;;;;;;5025691;28;20056;-75
2022/04/01 00:29:15;;;;;;;11.67;7.13;;;;;;;;;;5009111;28;20026;-75
2022/04/01 00:31:45;;;;;;;14.07;8.47;;;;;;;;;;5025781;28;20041;-75
2022/04/01 00:34:15;;;;;;;11.33;7.13;;;;;;;;;;5009986;28;20496;-74
2022/04/01 00:36:46;;;;;;;12.60;8.33;;;;;;;;;;5025737;28;20112;-74
2022/04/01 00:39:13;;;;;;;10.60;7.67;;;;;;;;;;4992743;28;20401;-75
2022/04/01 00:41:44;;;;;;;13.13;8.03;;;;;;;;;;5024977;28;20116;-75
2022/04/01 00:44:17;;;;;;;13.90;7.47;;;;;;;;;;5024893;28;20026;-76
2022/04/01 00:46:45;;;;;;;11.30;7.53;;;;;;;;;;5025191;28;20095;-76
2022/04/01 00:49:11;;;;;;;20.33;11.20;;;;;;;;;;5009878;28;20022;-75
2022/04/01 00:51:37;;;;;;;11.53;8.17;;;;;;;;;;5025282;28;20375;-75
2022/04/01 00:54:06;;;;;;;11.40;7.17;;;;;;;;;;5025014;28;20029;-75
2022/04/01 00:56:33;;;;;;;9.30;6.50;;;;;;;;;;5024891;28;20397;-75
2022/04/01 00:59:00;;;;;;;11.17;7.17;;;;;;;;;;5005314;28;20510;-75
2022/04/01 01:01:26;;;;;;;9.93;7.33;;;;;;;;;;5005656;28;20084;-75
2022/04/01 01:03:52;;;;;;;9.83;7.20;;;;;;;;;;4989219;28;20027;-75
2022/04/01 01:06:20;;;;;;;10.73;7.70;;;;;;;;;;5005914;28;20030;-75
2022/04/01 01:08:45;;;;;;;10.77;6.27;;;;;;;;;;4996697;28;20026;-74
2022/04/01 01:11:11;;;;;;;11.53;8.20;;;;;;;;;;5019140;28;20062;-75
2022/04/01 01:13:38;;;;;;;11.37;7.37;;;;;;;;;;5021181;28;20137;-74
2022/04/01 01:16:04;;;;;;;11.50;7.63;;;;;;;;;;5025987;28;20029;-74
2022/04/01 01:18:29;;;;;;;9.50;7.13;;;;;;;;;;5034169;28;20030;-75
2022/04/01 01:20:55;;;;;;;10.53;7.10;;;;;;;;;;5011487;28;20492;-75
2022/04/01 01:23:27;;;;;;;12.77;8.37;;;;;;;;;;5026008;28;20026;-75
2022/04/01 01:25:53;;;;;;;9.57;6.93;;;;;;;;;;5008756;28;20113;-76
2022/04/01 01:28:18;;;;;;;10.73;7.63;;;;;;;;;;5025301;28;20109;-75
2022/04/01 01:30:44;;;;;;;12.40;7.43;;;;;;;;;;5009713;28;20405;-75
2022/04/01 01:33:11;;;;;;;9.47;6.77;;;;;;;;;;5009602;28;20026;-76
2022/04/01 01:35:37;;;;;;;10.13;8.20;;;;;;;;;;5025078;28;20026;-75
2022/04/01 01:38:02;;;;;;;10.43;7.63;;;;;;;;;;5008734;28;20366;-76
2022/04/01 01:40:28;;;;;;;12.60;8.00;;;;;;;;;;5009448;28;20062;-76
2022/04/01 01:42:53;;;;;;;13.63;8.87;;;;;;;;;;5009289;28;20097;-76
2022/04/01 01:45:19;;;;;;;12.97;8.97;;;;;;;;;;5024305;28;20787;-75
2022/04/01 01:47:45;;;;;;;12.43;7.97;;;;;;;;;;5024636;28;20037;-75
2022/04/01 01:55:39;;;;;;;15.10;10.13;;;;;;;;;;5008932;28;20053;-76
2022/04/01 01:58:05;;;;;;;19.53;13.70;;;;;;;;;;5024177;28;20030;-76
2022/04/01 02:00:31;;;;;;;17.17;10.77;;;;;;;;;;5011853;28;20018;-76
2022/04/01 02:02:57;;;;;;;14.33;9.57;;;;;;;;;;5011752;28;20444;-75
2022/04/01 02:05:22;;;;;;;15.40;9.77;;;;;;;;;;5027976;28;20033;-75
2022/04/01 02:07:48;;;;;;;17.73;10.63;;;;;;;;;;5011374;28;20239;-75
2022/04/01 02:10:15;;;;;;;16.60;10.50;;;;;;;;;;5010968;28;20057;-75
2022/04/01 02:12:42;;;;;;;19.57;10.43;;;;;;;;;;5027167;28;20033;-75
2022/04/01 02:15:10;;;;;;;17.63;10.00;;;;;;;;;;5027751;28;20022;-75
2022/04/01 02:17:37;;;;;;;15.97;9.63;;;;;;;;;;5031508;28;20581;-75
2022/04/01 02:20:05;;;;;;;16.07;9.40;;;;;;;;;;5028994;28;20029;-76
2022/04/01 02:22:31;;;;;;;18.13;10.97;;;;;;;;;;5029410;28;20030;-76
2022/04/01 02:24:57;;;;;;;15.83;10.73;;;;;;;;;;5017732;28;20052;-75
2022/04/01 02:27:24;;;;;;;20.03;11.17;;;;;;;;;;5019909;28;20498;-75
2022/04/01 02:29:50;;;;;;;15.33;9.83;;;;;;;;;;5029907;28;20053;-76
2022/04/01 02:32:16;;;;;;;19.47;10.73;;;;;;;;;;5028033;28;20065;-75
2022/04/01 02:34:42;;;;;;;15.33;10.50;;;;;;;;;;5027789;28;20247;-75
2022/04/01 02:37:08;;;;;;;16.93;10.57;;;;;;;;;;5028246;28;20034;-75
2022/04/01 02:39:33;;;;;;;18.87;9.87;;;;;;;;;;5027566;28;20103;-75
2022/04/01 02:41:59;;;;;;;16.83;9.13;;;;;;;;;;5027812;28;20034;-76
2022/04/01 02:44:25;;;;;;;15.20;9.67;;;;;;;;;;5010936;28;20111;-75
2022/04/01 02:46:50;;;;;;;15.97;9.40;;;;;;;;;;5012601;28;20026;-75
2022/04/01 02:49:17;;;;;;;16.33;9.80;;;;;;;;;;5027443;28;20104;-75
2022/04/01 02:51:47;;;;;;;18.53;11.27;;;;;;;;;;5027798;28;20378;-76
2022/04/01 02:54:14;;;;;;;17.13;10.63;;;;;;;;;;5010950;28;20030;-74
2022/04/01 02:56:40;;;;;;;16.63;10.27;;;;;;;;;;5026966;28;20048;-74
2022/04/01 02:59:08;;;;;;;15.47;10.03;;;;;;;;;;5011769;28;20498;-75
2022/04/01 03:01:38;;;;;;;17.63;9.70;;;;;;;;;;5027127;28;20442;-76
2022/04/01 03:04:09;;;;;;;16.30;10.30;;;;;;;;;;5027232;28;20030;-74
2022/04/01 03:06:37;;;;;;;17.73;10.47;;;;;;;;;;5010718;28;20038;-75
2022/04/01 03:09:03;;;;;;;16.87;10.00;;;;;;;;;;5028554;28;20026;-76
2022/04/01 03:11:28;;;;;;;15.53;9.90;;;;;;;;;;5025674;28;20030;-75
2022/04/01 03:13:55;;;;;;;16.70;10.20;;;;;;;;;;5026571;28;20026;-75
2022/04/01 03:16:22;;;;;;;17.57;10.97;;;;;;;;;;5026688;28;20056;-74
2022/04/01 03:18:47;;;;;;;15.37;9.37;;;;;;;;;;5026767;28;20053;-76
2022/04/01 03:21:15;;;;;;;13.73;9.20;;;;;;;;;;5011586;28;20077;-75
2022/04/01 03:23:43;;;;;;;14.37;8.37;;;;;;;;;;5026513;28;20064;-75
2022/04/01 03:26:09;;;;;;;15.10;9.70;;;;;;;;;;5026758;28;20025;-75
2022/04/01 03:28:35;;;;;;;16.50;9.00;;;;;;;;;;5017753;28;20041;-75
2022/04/01 03:31:03;;;;;;;15.20;9.00;;;;;;;;;;5009987;28;20037;-75
2022/04/01 03:33:30;;;;;;;14.97;9.47;;;;;;;;;;5009919;28;20030;-75
2022/04/01 03:35:57;;;;;;;13.33;8.63;;;;;;;;;;5026580;28;20595;-77
2022/04/01 03:38:22;;;;;;;15.23;8.73;;;;;;;;;;5026319;28;20422;-76
2022/04/01 03:40:51;;;;;;;13.07;8.73;;;;;;;;;;5026406;28;20037;-76
2022/04/01 03:43:20;;;;;;;14.73;9.93;;;;;;;;;;5006354;28;20038;-75
2022/04/01 03:45:49;;;;;;;16.77;9.83;;;;;;;;;;5006476;28;20034;-74
2022/04/01 03:48:28;;;;;;;14.07;8.80;;;;;;;;;;5006628;28;20530;-75
2022/04/01 03:50:58;;;;;;;15.20;9.77;;;;;;;;;;4989689;28;20084;-75
2022/04/01 03:53:28;;;;;;;14.60;9.10;;;;;;;;;;5006045;28;20037;-75
2022/04/01 03:55:55;;;;;;;16.80;9.90;;;;;;;;;;4991520;28;20085;-75
2022/04/01 03:58:27;;;;;;;18.33;11.00;;;;;;;;;;5015333;28;20470;-75
2022/04/01 04:00:53;;;;;;;;;;;;;;;;;;4994179;28;20080;-76
2022/04/01 04:03:18;;;;;;;17.50;10.33;;;;;;;;;;5026252;28;19909;-75
2022/04/01 04:05:47;;;;;;;20.40;10.93;;;;;;;;;;5026009;28;20129;-76
2022/04/01 04:08:12;;;;;;;21.87;11.93;;;;;;;;;;5026604;28;20639;-75
2022/04/01 04:10:39;;;;;;;21.37;11.47;;;;;;;;;;5025771;28;20058;-75
2022/04/01 04:13:06;;;;;;;19.63;10.90;;;;;;;;;;4993190;28;20061;-74
2022/04/01 04:16:00;;;;;;;18.80;10.63;;;;;;;;;;5025842;28;20107;-77
2022/04/01 04:18:32;;;;;;;18.10;11.33;;;;;;;;;;5010142;28;20430;-74
2022/04/01 04:21:30;;;;;;;16.10;11.20;;;;;;;;;;5009609;28;20107;-74
2022/04/01 04:24:01;;;;;;;21.17;12.37;;;;;;;;;;5010273;28;20030;-75
2022/04/01 04:26:37;;;;;;;19.57;11.77;;;;;;;;;;5009775;28;20036;-75
2022/04/01 04:29:14;;;;;;;20.50;12.43;;;;;;;;;;5025444;28;20096;-74
2022/04/01 04:32:03;;;;;;;18.27;11.33;;;;;;;;;;5010332;28;20394;-74
2022/04/01 04:34:37;;;;;;;14.70;9.53;;;;;;;;;;5005419;28;20022;-74
2022/04/01 04:37:11;;;;;;;16.80;11.33;;;;;;;;;;4991141;28;20034;-75
2022/04/01 04:39:40;;;;;;;17.47;10.40;;;;;;;;;;5005803;28;20035;-75
2022/04/01 04:42:09;;;;;;;18.47;10.63;;;;;;;;;;4998035;28;20061;-74
2022/04/01 04:44:48;;;;;;;19.73;11.90;;;;;;;;;;5009841;28;20022;-75
2022/04/01 04:47:18;;;;;;;19.95;12.07;;;;;;;;;;5008644;28;20033;-76
2022/04/01 04:49:47;;;;;;;22.77;13.87;;;;;;;;;;5008771;28;20029;-75
2022/04/01 04:52:15;;;;;;;21.50;12.43;;;;;;;;;;5008490;28;20044;-75
2022/04/01 04:54:41;;;;;;;22.50;12.27;;;;;;;;;;5009437;28;20040;-75
2022/04/01 04:57:07;;;;;;;24.43;14.67;;;;;;;;;;5008515;28;20029;-76
2022/04/01 04:59:35;;;;;;;22.07;13.23;;;;;;;;;;5008388;28;20034;-76
2022/04/01 05:02:14;;;;;;;24.60;14.63;;;;;;;;;;4992373;28;20132;-76
2022/04/01 05:04:49;;;;;;;22.63;14.73;;;;;;;;;;4997123;28;20021;-76
2022/04/01 05:07:51;;;;;;;23.33;14.33;;;;;;;;;;5006962;28;20541;-76
2022/04/01 05:10:29;;;;;;;24.63;13.18;;;;;;;;;;5014292;28;20087;-76
2022/04/01 05:13:18;;;;;;;27.60;15.03;;;;;;;;;;5009753;28;20052;-77
2022/04/01 05:15:52;;;;;;;26.50;15.23;;;;;;;;;;5003244;28;20022;-76
2022/04/01 05:18:25;;;;;;;24.27;13.70;;;;;;;;;;5021104;28;20428;-76
2022/04/01 05:20:59;;;;;;;26.60;14.17;;;;;;;;;;5009869;28;20026;-75
2022/04/01 05:23:46;;;;;;;24.27;14.63;;;;;;;;;;5009192;28;20059;-76
2022/04/01 05:26:14;;;;;;;26.27;15.07;;;;;;;;;;5011053;28;20033;-78
2022/04/01 05:28:48;;;;;;;25.07;15.73;;;;;;;;;;5009688;28;20437;-77
2022/04/01 05:31:28;;;;;;;29.50;15.90;;;;;;;;;;4993071;28;20033;-78
2022/04/01 05:34:09;;;;;;;25.40;15.17;;;;;;;;;;5028222;28;20036;-77
2022/04/01 05:36:38;;;;;;;24.90;13.70;;;;;;;;;;5024843;28;20144;-81
2022/04/01 05:39:04;;;;;;;26.60;15.33;;;;;;;;;;5008992;28;20509;-76
2022/04/01 05:41:30;;;;;;;27.20;14.60;;;;;;;;;;5008394;28;20042;-78
2022/04/01 05:44:00;;;;;;;24.00;14.17;;;;;;;;;;5010072;28;20030;-76
2022/04/01 05:46:26;;;;;;;23.07;14.27;;;;;;;;;;5024638;28;20037;-77
2022/04/01 05:48:56;;;;;;;25.77;14.23;;;;;;;;;;5024547;28;20032;-76
2022/04/01 05:51:22;;;;;;;27.97;14.53;;;;;;;;;;5024304;28;20025;-76
2022/04/01 05:53:51;;;;;;;27.27;14.10;;;;;;;;;;5024574;28;20034;-79
2022/04/01 05:56:17;;;;;;;24.03;13.57;;;;;;;;;;5009633;28;20037;-78
2022/04/01 05:58:43;;;;;;;28.47;17.63;;;;;;;;;;5009727;28;20022;-78
2022/04/01 06:01:20;;;;;;;28.30;14.97;;;;;;;;;;5025160;28;20044;-78
2022/04/01 06:04:02;;;;;;;22.33;14.10;;;;;;;;;;5024518;28;20100;-78
2022/04/01 06:06:32;;;;;;;20.00;12.38;;;;;;;;;;5009359;28;20034;-77
2022/04/01 06:09:06;;;;;;;21.33;13.37;;;;;;;;;;5001758;28;20128;-78
2022/04/01 06:11:55;;;;;;;22.67;13.67;;;;;;;;;;5014335;28;20038;-77
2022/04/01 06:14:35;;;;;;;25.57;11.90;;;;;;;;;;5006439;28;20434;-77
2022/04/01 06:17:12;;;;;;;23.27;13.47;;;;;;;;;;5006558;28;20330;-78
2022/04/01 06:19:47;;;;;;;19.47;12.87;;;;;;;;;;5014078;28;20130;-78
2022/04/01 06:22:20;;;;;;;22.33;13.30;;;;;;;;;;5037145;28;20045;-76
2022/04/01 06:25:17;;;;;;;23.23;14.47;;;;;;;;;;4999527;28;20246;-73
2022/04/01 06:27:55;;;;;;;23.73;14.03;;;;;;;;;;5009173;28;20291;-78
2022/04/01 06:30:25;;;;;;;22.17;13.03;;;;;;;;;;5010452;28;20022;-78
2022/04/01 06:33:09;;;;;;;23.63;12.53;;;;;;;;;;4989694;28;20030;-76
2022/04/01 06:35:55;;;;;;;21.30;13.33;;;;;;;;;;5005142;28;20049;-76
2022/04/01 06:39:01;;;;;;;22.83;14.27;;;;;;;;;;4996859;28;20136;-77
2022/04/01 06:41:35;;;;;;;22.53;13.13;;;;;;;;;;4982168;28;20224;-76
2022/04/01 06:44:02;;;;;;;21.53;13.80;;;;;;;;;;4995036;28;20041;-75
2022/04/01 06:46:28;;;;;;;22.77;14.40;;;;;;;;;;4998507;28;20482;-76
2022/04/01 06:48:55;;;;;;;25.90;14.10;;;;;;;;;;4997987;28;20041;-76
2022/04/01 06:51:22;;;;;;;22.33;14.03;;;;;;;;;;5010786;28;20168;-76
2022/04/01 06:53:48;;;;;;;27.13;14.67;;;;;;;;;;5011681;28;20038;-76
2022/04/01 06:56:16;;;;;;;24.00;14.80;;;;;;;;;;4995990;28;20105;-77
2022/04/01 06:58:47;;;;;;;20.77;13.53;;;;;;;;;;5016354;28;20790;-76
2022/04/01 07:01:34;;;;;;;27.10;12.93;;;;;;;;;;4997546;28;20117;-76
2022/04/01 07:04:01;;;;;;;25.87;13.47;;;;;;;;;;5010123;28;20321;-77
2022/04/01 07:06:28;;;;;;;27.27;14.20;;;;;;;;;;5007008;28;20053;-77
2022/04/01 07:08:54;;;;;;;26.57;15.23;;;;;;;;;;5014837;28;20676;-76
2022/04/01 07:11:21;;;;;;;27.00;13.33;;;;;;;;;;5001517;28;20050;-75
2022/04/01 07:13:47;;;;;;;23.47;13.93;;;;;;;;;;5009520;28;20040;-76
2022/04/01 07:16:14;;;;;;;21.80;10.30;;;;;;;;;;5007810;28;20034;-76
2022/04/01 07:18:40;;;;;;;14.97;9.37;;;;;;;;;;4999932;28;20042;-77
2022/04/01 07:21:10;;;;;;;12.67;8.83;;;;;;;;;;4996320;28;20065;-80
2022/04/01 07:23:37;;;;;;;13.80;6.97;;;;;;;;;;5007243;28;20042;-76
2022/04/01 07:26:03;;;;;;;12.13;7.60;;;;;;;;;;5013028;28;20022;-75
2022/04/01 07:28:30;;;;;;;13.07;8.37;;;;;;;;;;5001376;28;20033;-75
2022/04/01 07:30:58;;;;;;;16.50;8.53;;;;;;;;;;5013111;28;20073;-75
2022/04/01 07:33:25;;;;;;;18.37;8.93;;;;;;;;;;4998614;28;20137;-75
2022/04/01 07:35:54;;;;;;;22.80;12.50;;;;;;;;;;5014659;28;20041;-78
2022/04/01 07:38:20;;;;;;;13.97;9.40;;;;;;;;;;4997892;28;20021;-77
2022/04/01 07:40:46;;;;;;;17.37;10.33;;;;;;;;;;5012432;28;20494;-76
2022/04/01 07:43:12;;;;;;;19.90;11.10;;;;;;;;;;4992317;28;20040;-77
2022/04/01 07:45:39;;;;;;;13.83;8.27;;;;;;;;;;4996846;28;20380;-77
2022/04/01 07:48:07;;;;;;;19.17;11.30;;;;;;;;;;5009308;28;20030;-76
2022/04/01 07:50:33;;;;;;;26.87;13.30;;;;;;;;;;5013444;28;20031;-77
2022/04/01 07:53:04;;;;;;;26.53;15.07;;;;;;;;;;5004122;28;20041;-76
2022/04/01 07:55:30;;;;;;;30.70;14.90;;;;;;;;;;5009665;28;20026;-76
2022/04/01 07:57:57;;;;;;;27.40;15.03;;;;;;;;;;4998027;28;20026;-76
2022/04/01 08:00:23;;;;;;;23.03;14.40;;;;;;;;;;5013946;28;20045;-76
2022/04/01 08:02:54;;;;;;;22.27;13.53;;;;;;;;;;4997037;28;20044;-76
2022/04/01 08:05:23;;;;;;;25.73;14.68;;;;;;;;;;4990766;28;20522;-76
2022/04/01 08:07:49;;;;;;;28.13;14.53;;;;;;;;;;5006112;28;20141;-76
2022/04/01 08:10:18;;;;;;;25.63;13.70;;;;;;;;;;4994520;28;21511;-75
2022/04/01 08:12:44;;;;;;;29.43;14.13;;;;;;;;;;5013680;28;20034;-75
2022/04/01 08:15:15;;;;;;;33.33;15.63;;;;;;;;;;4991817;28;20065;-75
2022/04/01 08:17:55;;;;;;;27.37;14.73;;;;;;;;;;4999810;28;20054;-74
2022/04/01 08:20:26;;;;;;;21.97;13.00;;;;;;;;;;5007826;28;20472;-73
2022/04/01 08:22:52;;;;;;;19.83;12.30;;;;;;;;;;4993189;28;20520;-73
2022/04/01 08:25:18;;;;;;;22.90;13.13;;;;;;;;;;4985468;28;20058;-75
2022/04/01 08:27:44;;;;;;;25.10;13.67;;;;;;;;;;4995452;28;20521;-74
2022/04/01 08:30:11;;;;;;;19.17;12.57;;;;;;;;;;5003686;28;20041;-74
2022/04/01 08:32:38;;;;;;;20.73;12.00;;;;;;;;;;5007967;28;20041;-74
2022/04/01 08:35:07;;;;;;;19.70;13.10;;;;;;;;;;5006262;28;20437;-74
2022/04/01 08:37:38;;;;;;;20.17;12.27;;;;;;;;;;5007493;28;20061;-75
2022/04/01 08:40:05;;;;;;;25.00;12.65;;;;;;;;;;4996941;28;20137;-76
2022/04/01 08:42:32;;;;;;;29.60;13.30;;;;;;;;;;5011521;28;20030;-75
2022/04/01 08:44:59;;;;;;;21.27;12.73;;;;;;;;;;4987023;28;20116;-76
2022/04/01 08:47:28;;;;;;;21.93;12.70;;;;;;;;;;4991961;28;20088;-75
2022/04/01 08:49:55;;;;;;;20.50;12.83;;;;;;;;;;4996199;28;20029;-76
2022/04/01 08:52:22;;;;;;;19.73;11.93;;;;;;;;;;5010203;28;20030;-78
2022/04/01 08:54:52;;;;;;;20.70;11.70;;;;;;;;;;4998602;28;20037;-77
2022/04/01 08:57:19;;;;;;;26.10;13.20;;;;;;;;;;5011499;28;20065;-78
2022/04/01 08:59:45;;;;;;;29.23;14.97;;;;;;;;;;5008847;28;20274;-77
2022/04/01 09:02:11;;;;;;;27.23;13.83;;;;;;;;;;4983734;28;20038;-75
2022/04/01 09:04:40;;;;;;;20.27;13.50;;;;;;;;;;4987572;28;20030;-75
2022/04/01 09:07:17;;;;;;;23.57;12.57;;;;;;;;;;5008656;28;20017;-75
2022/04/01 09:09:44;;;;;;;18.87;11.70;;;;;;;;;;5005235;28;20030;-75
2022/04/01 09:12:15;;;;;;;26.20;13.97;;;;;;;;;;4996351;28;20158;-75
2022/04/01 09:14:50;;;;;;;19.20;12.63;;;;;;;;;;5007823;28;20035;-75
2022/04/01 09:17:16;;;;;;;19.53;11.60;;;;;;;;;;5008225;28;20050;-75
2022/04/01 09:19:42;;;;;;;21.50;12.97;;;;;;;;;;4992287;28;20516;-75
2022/04/01 09:22:23;;;;;;;23.23;13.57;;;;;;;;;;4990487;28;20044;-75
2022/04/01 09:25:06;;;;;;;21.57;12.80;;;;;;;;;;4989140;28;21503;-76
2022/04/01 09:27:46;;;;;;;17.43;11.63;;;;;;;;;;4999276;28;20426;-77
2022/04/01 09:30:16;;;;;;;19.40;13.00;;;;;;;;;;5007352;28;20465;-76
2022/04/01 09:32:47;;;;;;;20.73;12.30;;;;;;;;;;4989954;28;20030;-76
2022/04/01 09:35:22;;;;;;;17.83;12.40;;;;;;;;;;5005424;28;20657;-76
2022/04/01 09:38:01;;;;;;;17.60;11.00;;;;;;;;;;4984250;28;20037;-75
2022/04/01 09:40:30;;;;;;;17.77;11.17;;;;;;;;;;5007057;28;20485;-75
2022/04/01 09:43:00;;;;;;;30.63;16.27;;;;;;;;;;5000764;28;20025;-76
2022/04/01 09:45:30;;;;;;;18.00;11.60;;;;;;;;;;4989147;28;20054;-78
2022/04/01 09:48:01;;;;;;;16.83;11.23;;;;;;;;;;5004880;28;20124;-77
2022/04/01 09:50:36;;;;;;;27.45;12.27;;;;;;;;;;5008647;28;20393;-76
2022/04/01 09:53:16;;;;;;;28.23;13.53;;;;;;;;;;5008321;28;20044;-75
2022/04/01 09:55:46;;;;;;;18.73;10.77;;;;;;;;;;5003912;28;20068;-76
2022/04/01 09:58:19;;;;;;;20.20;11.90;;;;;;;;;;5002892;28;20034;-76
2022/04/01 10:00:46;;;;;;;21.00;12.37;;;;;;;;;;5010247;28;20026;-75
2022/04/01 10:03:15;;;;;;;22.00;12.07;;;;;;;;;;5007684;28;20494;-77
2022/04/01 10:05:42;;;;;;;21.93;12.17;;;;;;;;;;4988838;28;20036;-75
2022/04/01 10:08:11;;;;;;;19.77;12.63;;;;;;;;;;5008486;28;20827;-76
2022/04/01 10:10:41;;;;;;;20.97;12.47;;;;;;;;;;4987711;28;20191;-77
2022/04/01 10:13:20;;;;;;;22.53;12.40;;;;;;;;;;4992940;28;20660;-75
2022/04/01 10:15:47;;;;;;;26.67;13.23;;;;;;;;;;5007081;28;20042;-75
2022/04/01 10:18:18;;;;;;;14.87;10.27;;;;;;;;;;4992641;28;20076;-75
2022/04/01 10:20:45;;;;;;;18.80;11.37;;;;;;;;;;4997456;28;20027;-74
2022/04/01 10:23:12;;;;;;;17.20;10.30;;;;;;;;;;5000123;28;20034;-75
2022/04/01 10:25:58;;;;;;;13.40;8.90;;;;;;;;;;4996056;28;20037;-74
2022/04/01 10:28:27;;;;;;;14.60;10.30;;;;;;;;;;5027603;28;20172;-74
2022/04/01 10:30:58;;;;;;;14.43;10.70;;;;;;;;;;5019106;28;20068;-75
2022/04/01 10:33:38;;;;;;;16.47;9.37;;;;;;;;;;5016852;28;20034;-75
2022/04/01 10:36:27;;;;;;;14.80;10.03;;;;;;;;;;4994128;28;20049;-75
2022/04/01 10:39:05;;;;;;;13.13;8.80;;;;;;;;;;4994968;28;20180;-74
2022/04/01 10:41:33;;;;;;;21.27;11.27;;;;;;;;;;4993750;28;20095;-75
2022/04/01 10:44:09;;;;;;;18.93;11.73;;;;;;;;;;4982291;28;20153;-76
2022/04/01 10:46:55;;;;;;;22.27;10.77;;;;;;;;;;4995048;28;20049;-75
2022/04/01 10:52:22;;;;;;;23.33;10.47;;;;;;;;;;4996251;28;20046;-76
2022/04/01 10:55:13;;;;;;;13.17;10.03;;;;;;;;;;5005423;28;20038;-75
2022/04/01 10:57:50;;;;;;;18.45;10.35;;;;;;;;;;4982987;28;20038;-73
2022/04/01 11:00:21;;;;;;;28.47;12.03;;;;;;;;;;4995680;28;20119;-75
2022/04/01 11:02:50;;;;;;;25.83;11.40;;;;;;;;;;5004811;28;20125;-75
2022/04/01 11:05:31;;;;;;;16.57;10.50;;;;;;;;;;5006942;28;20478;-75
2022/04/01 11:08:20;;;;;;;15.07;9.87;;;;;;;;;;5006577;28;20072;-74
2022/04/01 11:11:10;;;;;;;17.73;10.37;;;;;;;;;;4992267;28;20164;-75
2022/04/01 11:13:39;;;;;;;20.07;10.87;;;;;;;;;;5009312;28;20026;-75
2022/04/01 11:16:20;;;;;;;19.40;10.33;;;;;;;;;;4977733;28;20050;-75
2022/04/01 11:19:25;;;;;;;20.27;12.00;;;;;;;;;;5017549;28;20108;-77
2022/04/01 11:21:52;;;;;;;24.13;12.63;;;;;;;;;;5016333;28;20057;-76
2022/04/01 11:24:33;;;;;;;18.67;11.40;;;;;;;;;;5000648;28;20084;-78
2022/04/01 11:27:24;;;;;;;19.20;11.87;;;;;;;;;;5012369;28;20148;-74
2022/04/01 11:30:08;;;;;;;23.43;12.23;;;;;;;;;;4999121;28;20775;-78
2022/04/01 11:32:37;;;;;;;19.30;12.03;;;;;;;;;;4998196;28;20402;-75
2022/04/01 11:35:04;;;;;;;22.73;12.93;;;;;;;;;;4983302;28;20022;-76
2022/04/01 11:37:45;;;;;;;18.87;11.40;;;;;;;;;;4998890;28;20056;-74
2022/04/01 11:40:12;;;;;;;18.13;11.40;;;;;;;;;;5013007;28;20045;-75
2022/04/01 11:43:06;;;;;;;21.10;11.77;;;;;;;;;;5001951;28;20071;-77
2022/04/01 11:46:02;;;;;;;19.63;12.50;;;;;;;;;;4997581;28;20435;-78
2022/04/01 11:48:32;;;;;;;24.03;14.77;;;;;;;;;;4998708;28;20033;-76
2022/04/01 11:51:12;;;;;;;25.60;12.13;;;;;;;;;;5002890;28;20121;-76
2022/04/01 11:53:49;;;;;;;29.00;14.40;;;;;;;;;;5009817;28;20438;-76
2022/04/01 11:56:17;;;;;;;23.10;12.53;;;;;;;;;;4997984;28;20022;-77
2022/04/01 11:58:55;;;;;;;33.83;13.60;;;;;;;;;;5004135;28;20061;-76
2022/04/01 12:01:31;;;;;;;24.73;13.20;;;;;;;;;;5006657;28;20037;-76
2022/04/01 12:04:05;;;;;;;22.67;13.30;;;;;;;;;;5005260;28;20064;-75
2022/04/01 12:09:15;;;;;;;21.90;13.57;;;;;;;;;;4996936;28;20067;-75
2022/04/01 12:11:48;;;;;;;28.53;13.87;;;;;;;;;;4998572;28;20038;-77
2022/04/01 12:14:23;;;;;;;22.20;13.23;;;;;;;;;;4992515;28;20533;-75
2022/04/01 12:16:50;;;;;;;27.63;13.67;;;;;;;;;;4994771;28;20098;-75
2022/04/01 12:19:20;;;;;;;27.73;13.63;;;;;;;;;;5012040;28;20455;-76
2022/04/01 12:21:56;;;;;;;19.43;11.87;;;;;;;;;;4997623;28;20041;-74
2022/04/01 12:24:25;;;;;;;20.67;12.17;;;;;;;;;;5010213;28;20091;-74
2022/04/01 12:26:54;;;;;;;20.97;12.47;;;;;;;;;;5000985;28;20149;-76
2022/04/01 12:29:26;;;;;;;15.13;10.67;;;;;;;;;;4987805;28;20060;-75
2022/04/01 12:31:55;;;;;;;19.67;12.05;;;;;;;;;;5010477;28;20034;-75
2022/04/01 12:34:34;;;;;;;15.80;10.10;;;;;;;;;;4987494;28;20637;-75
2022/04/01 12:37:04;;;;;;;16.03;10.40;;;;;;;;;;4996336;28;20033;-75
2022/04/01 12:39:32;;;;;;;18.40;12.03;;;;;;;;;;4997265;28;20041;-78
2022/04/01 12:42:00;;;;;;;17.30;10.03;;;;;;;;;;5007879;28;20774;-75
2022/04/01 12:44:35;;;;;;;17.93;10.57;;;;;;;;;;4988141;28;20018;-76
2022/04/01 12:47:03;;;;;;;19.30;10.57;;;;;;;;;;5009649;28;20121;-76
2022/04/01 12:49:41;;;;;;;18.20;10.43;;;;;;;;;;5020098;28;20092;-76
2022/04/01 12:52:16;;;;;;;20.30;11.57;;;;;;;;;;4993907;28;20026;-75
2022/04/01 12:55:00;;;;;;;17.17;11.13;;;;;;;;;;4995720;28;20136;-78
2022/04/01 12:57:27;;;;;;;27.03;10.90;;;;;;;;;;4990885;28;20081;-75
2022/04/01 12:59:56;;;;;;;18.67;10.17;;;;;;;;;;5009260;28;20030;-75
2022/04/01 13:02:24;;;;;;;17.03;9.90;;;;;;;;;;4999514;28;20018;-75
2022/04/01 13:04:56;;;;;;;21.37;11.30;;;;;;;;;;5020461;28;20034;-79
2022/04/01 13:07:27;;;;;;;18.40;10.02;;;;;;;;;;5010510;28;20161;-75
2022/04/01 13:10:01;;;;;;;17.02;10.57;;;;;;;;;;5003258;28;20018;-76
2022/04/01 13:12:55;;;;;;;18.33;11.80;;;;;;;;;;5016129;28;20029;-75
2022/04/01 13:15:28;;;;;;;16.77;8.83;;;;;;;;;;5015496;28;20189;-74
2022/04/01 13:17:56;;;;;;;18.23;10.33;;;;;;;;;;5010672;28;20133;-75
2022/04/01 13:20:30;;;;;;;15.00;9.67;;;;;;;;;;5002715;28;20533;-75
2022/04/01 13:23:03;;;;;;;13.33;9.33;;;;;;;;;;5017401;28;20390;-75
2022/04/01 13:25:31;;;;;;;21.97;10.00;;;;;;;;;;5002477;28;20482;-74
2022/04/01 13:27:57;;;;;;;21.60;10.57;;;;;;;;;;4995304;28;20552;-74
2022/04/01 13:30:24;;;;;;;15.00;9.63;;;;;;;;;;4999215;28;20030;-75
2022/04/01 13:32:50;;;;;;;21.87;9.53;;;;;;;;;;5015032;28;20036;-73
2022/04/01 13:35:17;;;;;;;16.33;10.00;;;;;;;;;;5004961;28;20068;-74
2022/04/01 13:37:44;;;;;;;19.13;10.20;;;;;;;;;;5019082;28;20034;-72
2022/04/01 13:40:17;;;;;;;20.77;10.37;;;;;;;;;;5017349;28;20140;-75
2022/04/01 13:42:46;;;;;;;16.33;9.97;;;;;;;;;;5004268;28;20041;-75
2022/04/01 13:45:12;;;;;;;19.93;9.50;;;;;;;;;;5002300;28;20073;-75
2022/04/01 13:47:37;;;;;;;17.90;9.60;;;;;;;;;;5020359;28;20462;-75
2022/04/01 13:50:05;;;;;;;16.80;10.27;;;;;;;;;;5022450;28;20037;-75
2022/04/01 13:52:31;;;;;;;15.30;9.57;;;;;;;;;;5022750;28;20038;-74
2022/04/01 13:54:56;;;;;;;18.30;10.37;;;;;;;;;;5020252;28;20030;-74
2022/04/01 13:57:22;;;;;;;14.57;8.80;;;;;;;;;;5006618;28;20029;-74
2022/04/01 13:59:48;;;;;;;23.03;13.13;;;;;;;;;;5022997;28;20045;-75
2022/04/01 14:02:17;;;;;;;13.53;9.13;;;;;;;;;;5021797;28;20033;-75
2022/04/01 14:04:43;;;;;;;18.50;8.33;;;;;;;;;;5008682;28;20124;-75
2022/04/01 14:07:12;;;;;;;11.93;8.47;;;;;;;;;;5006667;28;20038;-74
2022/04/01 14:09:40;;;;;;;18.50;11.20;;;;;;;;;;5024683;28;20568;-74
2022/04/01 14:12:07;;;;;;;17.07;9.07;;;;;;;;;;5015087;28;20026;-75
2022/04/01 14:14:38;;;;;;;13.47;10.33;;;;;;;;;;5024932;28;20034;-76
2022/04/01 14:17:14;;;;;;;;;;;;;;;;;;;;;
2022/04/01 14:19:41;;;;;;;14.73;9.47;;;;;;;;;;5002139;28;20421;-75
2022/04/01 14:22:08;;;;;;;16.83;10.63;;;;;;;;;;5009386;28;20395;-74
2022/04/01 14:24:34;;;;;;;15.30;9.03;;;;;;;;;;5020098;28;20324;-75
2022/04/01 14:27:02;;;;;;;15.20;9.17;;;;;;;;;;5025768;28;20407;-74
2022/04/01 14:32:18;;;;;;;12.90;8.70;;;;;;;;;;5009628;28;20663;-75
2022/04/01 14:34:45;;;;;;;20.47;10.33;;;;;;;;;;5025133;28;20029;-74
2022/04/01 14:37:11;;;;;;;19.03;9.03;;;;;;;;;;5007292;28;20033;-75
2022/04/01 14:39:37;;;;;;;16.17;8.50;;;;;;;;;;5013929;28;20030;-75
2022/04/01 14:42:03;;;;;;;12.40;8.10;;;;;;;;;;5004414;28;20022;-75
2022/04/01 14:44:31;;;;;;;12.70;9.00;;;;;;;;;;5003659;28;20345;-74
2022/04/01 14:46:56;;;;;;;18.07;9.47;;;;;;;;;;4992424;28;20066;-74
2022/04/01 14:49:22;;;;;;;12.87;7.40;;;;;;;;;;5023989;28;20053;-74
2022/04/01 14:51:55;;;;;;;11.47;7.93;;;;;;;;;;5009327;28;20342;-77
2022/04/01 14:54:22;;;;;;;13.80;8.27;;;;;;;;;;5011036;28;20030;-76
2022/04/01 14:56:48;;;;;;;16.47;9.10;;;;;;;;;;5027133;28;20153;-79
2022/04/01 14:59:14;;;;;;;14.80;9.20;;;;;;;;;;5024581;28;20025;-74